createdAt,value
2023-03-11T00:00:16.152Z,1.30
2023-03-11T00:02:44.842Z,1.33
2023-03-11T00:05:17.878Z,1.27
2023-03-11T00:07:44.568Z,1.20
2023-03-11T00:10:19.657Z,1.40
2023-03-11T00:12:46.368Z,1.35
2023-03-11T00:15:13.401Z,1.55
2023-03-11T00:17:40.509Z,1.30
2023-03-11T00:20:09.252Z,1.37
2023-03-11T00:22:35.899Z,1.20
2023-03-11T00:25:02.583Z,1.30
2023-03-11T00:27:29.266Z,1.63
2023-03-11T00:29:55.822Z,1.40
2023-03-11T00:32:22.482Z,1.08
2023-03-11T00:34:49.735Z,1.48
2023-03-11T00:37:16.380Z,1.30
2023-03-11T00:39:43.017Z,1.20
2023-03-11T00:42:09.631Z,1.50
2023-03-11T00:44:36.242Z,1.00
2023-03-11T00:47:02.920Z,1.40
2023-03-11T00:49:29.555Z,0.90
2023-03-11T00:51:56.144Z,1.35
2023-03-11T00:54:22.792Z,0.98
2023-03-11T00:56:49.354Z,1.00
2023-03-11T00:59:16.068Z,1.10
2023-03-11T01:01:42.757Z,1.10
2023-03-11T01:04:09.486Z,1.23
2023-03-11T01:06:45.140Z,1.25
2023-03-11T01:09:12.722Z,1.85
2023-03-11T01:11:39.356Z,0.70
2023-03-11T01:14:06.034Z,0.90
2023-03-11T01:16:32.736Z,1.03
2023-03-11T01:18:59.333Z,1.10
2023-03-11T01:21:26.139Z,1.00
2023-03-11T01:23:52.777Z,1.27
2023-03-11T01:26:19.435Z,1.23
2023-03-11T01:28:46.054Z,1.20
2023-03-11T01:31:12.866Z,1.10
2023-03-11T01:33:40.036Z,1.20
2023-03-11T01:36:07.138Z,1.10
2023-03-11T01:38:33.788Z,1.13
2023-03-11T01:41:00.477Z,0.90
2023-03-11T01:43:44.159Z,1.00
2023-03-11T01:46:13.470Z,1.02
2023-03-11T01:48:42.295Z,1.67
2023-03-11T01:51:09.523Z,1.02
2023-03-11T01:53:36.272Z,1.30
2023-03-11T01:56:05.630Z,1.27
2023-03-11T01:58:37.690Z,1.20
2023-03-11T02:01:05.254Z,1.10
2023-03-11T02:03:39.220Z,1.08
2023-03-11T02:06:16.334Z,0.93
2023-03-11T02:08:44.061Z,1.10
2023-03-11T02:11:15.372Z,1.20
2023-03-11T02:13:43.717Z,3.27
2023-03-11T02:16:10.709Z,0.80
2023-03-11T02:18:37.830Z,1.08
2023-03-11T02:21:19.212Z,0.90
2023-03-11T02:24:09.988Z,0.97
2023-03-11T02:26:58.701Z,1.40
2023-03-11T02:29:28.091Z,1.30
2023-03-11T02:31:56.809Z,1.10
2023-03-11T02:34:29.418Z,1.00
2023-03-11T02:36:56.186Z,1.00
2023-03-11T02:39:50.668Z,0.90
2023-03-11T02:42:28.099Z,1.10
2023-03-11T02:45:13.734Z,1.33
2023-03-11T02:47:41.196Z,1.35
2023-03-11T02:50:11.236Z,1.13
2023-03-11T02:52:38.329Z,1.00
2023-03-11T02:55:05.911Z,1.15
2023-03-11T02:57:32.616Z,0.93
2023-03-11T03:00:00.277Z,1.10
2023-03-11T03:02:26.857Z,1.00
2023-03-11T03:04:53.468Z,1.00
2023-03-11T03:07:20.165Z,1.25
2023-03-11T03:09:46.814Z,1.77
2023-03-11T03:12:13.384Z,1.00
2023-03-11T03:14:40.015Z,0.87
2023-03-11T03:17:06.751Z,0.90
2023-03-11T03:19:33.373Z,1.40
2023-03-11T03:22:00.000Z,1.40
2023-03-11T03:24:26.582Z,1.55
2023-03-11T03:26:53.285Z,1.40
2023-03-11T03:29:19.964Z,1.00
2023-03-11T03:31:46.760Z,1.20
2023-03-11T03:34:13.397Z,0.90
2023-03-11T03:36:40.065Z,1.40
2023-03-11T03:39:06.900Z,1.05
2023-03-11T03:41:33.556Z,1.40
2023-03-11T03:44:00.720Z,1.00
2023-03-11T03:46:27.354Z,0.90
2023-03-11T03:48:54.109Z,1.20
2023-03-11T03:51:20.774Z,1.02
2023-03-11T03:53:47.423Z,0.98
2023-03-11T03:56:16.537Z,1.30
2023-03-11T03:58:43.426Z,1.00
2023-03-11T04:01:11.022Z,0.80
2023-03-11T04:03:39.234Z,1.00
2023-03-11T04:06:07.473Z,0.70
2023-03-11T04:08:34.156Z,0.93
2023-03-11T04:11:00.775Z,1.10
2023-03-11T04:13:27.567Z,0.80
2023-03-11T04:15:54.295Z,1.00
2023-03-11T04:18:22.780Z,0.90
2023-03-11T04:20:49.728Z,0.90
2023-03-11T04:23:16.704Z,1.27
2023-03-11T04:25:43.473Z,0.82
2023-03-11T04:28:10.076Z,0.82
2023-03-11T04:30:36.894Z,1.10
2023-03-11T04:33:03.597Z,1.20
2023-03-11T04:35:30.251Z,0.80
2023-03-11T04:37:56.966Z,0.93
2023-03-11T04:40:23.605Z,1.08
2023-03-11T04:42:50.239Z,1.17
2023-03-11T04:45:18.423Z,1.13
2023-03-11T04:47:48.385Z,1.15
2023-03-11T04:50:15.463Z,1.05
2023-03-11T04:52:42.144Z,1.27
2023-03-11T04:55:09.735Z,0.80
2023-03-11T04:57:36.743Z,0.90
2023-03-11T05:00:09.381Z,0.85
2023-03-11T05:02:36.017Z,1.13
2023-03-11T05:05:02.666Z,1.27
2023-03-11T05:07:29.350Z,0.90
2023-03-11T05:09:55.986Z,0.88
2023-03-11T05:12:22.640Z,0.68
2023-03-11T05:14:49.265Z,1.00
2023-03-11T05:17:18.522Z,1.35
2023-03-11T05:19:45.981Z,1.05
2023-03-11T05:22:12.957Z,0.93
2023-03-11T05:24:39.609Z,0.80
2023-03-11T05:27:06.280Z,1.02
2023-03-11T05:29:32.890Z,1.02
2023-03-11T05:31:59.771Z,1.00
2023-03-11T05:34:26.434Z,0.80
2023-03-11T05:36:53.052Z,0.80
2023-03-11T05:39:19.858Z,1.23
2023-03-11T05:41:46.503Z,1.15
2023-03-11T05:44:13.152Z,0.93
2023-03-11T05:46:39.767Z,0.87
2023-03-11T05:49:06.603Z,0.82
2023-03-11T05:51:33.422Z,1.05
2023-03-11T05:54:00.610Z,0.93
2023-03-11T05:56:27.200Z,1.00
2023-03-11T05:58:53.809Z,1.25
2023-03-11T06:01:20.834Z,1.00
2023-03-11T06:03:47.585Z,0.90
2023-03-11T06:06:14.872Z,1.15
2023-03-11T06:08:45.928Z,0.70
2023-03-11T06:11:12.613Z,1.35
2023-03-11T06:13:39.248Z,1.30
2023-03-11T06:16:06.411Z,1.20
2023-03-11T06:18:33.137Z,0.90
2023-03-11T06:21:01.117Z,0.95
2023-03-11T06:23:28.449Z,0.90
2023-03-11T06:26:03.476Z,1.00
2023-03-11T06:28:30.319Z,1.17
2023-03-11T06:30:58.822Z,0.80
2023-03-11T06:33:25.750Z,1.20
2023-03-11T06:35:59.663Z,0.88
2023-03-11T06:38:26.524Z,1.00
2023-03-11T06:40:53.364Z,1.08
2023-03-11T06:43:22.029Z,0.95
2023-03-11T06:45:48.797Z,1.03
2023-03-11T06:48:15.420Z,1.40
2023-03-11T06:50:42.008Z,1.02
2023-03-11T06:53:09.497Z,1.13
2023-03-11T06:55:36.349Z,1.10
2023-03-11T06:58:03.256Z,1.00
2023-03-11T07:00:31.188Z,0.95
2023-03-11T07:02:58.010Z,0.90
2023-03-11T07:05:24.726Z,1.00
2023-03-11T07:07:55.120Z,0.93
2023-03-11T07:10:22.020Z,1.10
2023-03-11T07:12:48.644Z,1.13
2023-03-11T07:15:15.515Z,1.10
2023-03-11T07:17:42.143Z,1.00
2023-03-11T07:20:09.548Z,0.73
2023-03-11T07:22:36.168Z,1.00
2023-03-11T07:25:02.782Z,0.80
2023-03-11T07:27:29.492Z,0.93
2023-03-11T07:29:56.112Z,0.80
2023-03-11T07:32:22.903Z,0.85
2023-03-11T07:34:49.596Z,0.90
2023-03-11T07:37:16.456Z,0.80
2023-03-11T07:39:43.062Z,0.80
2023-03-11T07:42:09.727Z,0.70
2023-03-11T07:44:36.537Z,0.80
2023-03-11T07:47:04.194Z,0.73
2023-03-11T07:49:30.927Z,0.90
2023-03-11T07:51:57.766Z,0.90
2023-03-11T07:54:24.425Z,0.90
2023-03-11T07:56:51.140Z,0.95
2023-03-11T07:59:17.809Z,0.90
2023-03-11T08:01:47.175Z,1.25
2023-03-11T08:04:17.019Z,1.00
2023-03-11T08:06:46.772Z,1.23
2023-03-11T08:09:13.638Z,1.23
2023-03-11T08:11:40.309Z,1.02
2023-03-11T08:14:06.958Z,1.23
2023-03-11T08:16:34.473Z,1.13
2023-03-11T08:19:01.454Z,1.05
2023-03-11T08:21:31.820Z,1.30
2023-03-11T08:24:00.459Z,0.98
2023-03-11T08:26:27.553Z,1.10
2023-03-11T08:28:55.825Z,1.90
2023-03-11T08:31:25.329Z,1.27
2023-03-11T08:33:54.512Z,1.10
2023-03-11T08:36:21.589Z,1.27
2023-03-11T08:38:48.512Z,1.00
2023-03-11T08:41:15.655Z,1.23
2023-03-11T08:43:42.919Z,1.27
2023-03-11T08:46:17.841Z,1.35
2023-03-11T08:48:44.804Z,1.17
2023-03-11T08:51:12.649Z,1.40
2023-03-11T08:53:39.987Z,1.23
2023-03-11T08:56:06.878Z,1.40
2023-03-11T08:58:33.587Z,1.40
2023-03-11T09:01:00.780Z,1.05
2023-03-11T09:03:27.345Z,1.20
2023-03-11T09:05:58.537Z,1.52
2023-03-11T09:08:25.295Z,1.30
2023-03-11T09:10:52.027Z,1.88
2023-03-11T09:16:52.202Z,1.50
2023-03-11T09:19:35.397Z,1.50
2023-03-11T09:25:12.355Z,1.33
2023-03-11T09:27:39.202Z,1.73
2023-03-11T09:30:08.454Z,2.23
2023-03-11T09:32:36.918Z,1.92
2023-03-11T09:35:05.150Z,1.60
2023-03-11T09:37:32.477Z,1.92
2023-03-11T09:39:59.753Z,1.77
2023-03-11T09:42:45.777Z,1.70
2023-03-11T09:45:27.532Z,1.85
2023-03-11T09:48:27.386Z,1.55
2023-03-11T09:51:03.240Z,1.70
2023-03-11T09:53:44.879Z,2.15
2023-03-11T09:56:15.579Z,1.90
2023-03-11T09:58:52.311Z,2.00
2023-03-11T10:01:30.055Z,1.95
2023-03-11T10:04:02.131Z,1.80
2023-03-11T10:06:32.005Z,1.98
2023-03-11T10:09:12.870Z,1.80
2023-03-11T10:12:00.695Z,2.17
2023-03-11T10:14:54.868Z,1.48
2023-03-11T10:17:42.765Z,1.88
2023-03-11T10:20:20.744Z,2.00
2023-03-11T10:23:02.521Z,1.63
2023-03-11T10:25:47.626Z,1.73
2023-03-11T10:28:18.257Z,1.92
2023-03-11T10:30:57.938Z,1.92
2023-03-11T10:33:38.712Z,2.00
2023-03-11T10:36:18.997Z,1.23
2023-03-11T10:38:48.946Z,1.60
2023-03-11T10:41:39.883Z,1.52
2023-03-11T10:44:13.878Z,1.50
2023-03-11T10:46:40.546Z,1.10
2023-03-11T10:49:25.577Z,1.20
2023-03-11T10:51:54.408Z,1.30
2023-03-11T10:54:28.812Z,1.30
2023-03-11T10:57:01.514Z,1.70
2023-03-11T10:59:34.314Z,1.50
2023-03-11T11:02:04.326Z,1.60
2023-03-11T11:04:40.566Z,1.40
2023-03-11T11:07:30.579Z,1.33
2023-03-11T11:10:12.144Z,1.30
2023-03-11T11:12:59.206Z,1.27
2023-03-11T11:15:41.943Z,1.23
2023-03-11T11:18:28.510Z,1.50
2023-03-11T11:21:05.100Z,1.30
2023-03-11T11:23:40.699Z,1.25
2023-03-11T11:26:22.927Z,1.40
2023-03-11T11:29:12.302Z,1.20
2023-03-11T11:31:41.665Z,1.00
2023-03-11T11:34:32.762Z,0.95
2023-03-11T11:37:05.200Z,1.10
2023-03-11T11:39:52.688Z,1.38
2023-03-11T11:42:20.478Z,1.30
2023-03-11T11:44:51.932Z,0.95
2023-03-11T11:47:37.916Z,1.33
2023-03-11T11:50:13.076Z,1.33
2023-03-11T11:52:49.198Z,1.30
2023-03-11T11:55:19.961Z,1.40
2023-03-11T11:57:47.115Z,1.00
2023-03-11T12:00:34.364Z,1.40
2023-03-11T12:03:43.360Z,1.10
2023-03-11T12:06:27.092Z,1.48
2023-03-11T12:09:05.509Z,1.20
2023-03-11T12:11:41.974Z,1.20
2023-03-11T12:14:34.972Z,1.20
2023-03-11T12:17:04.311Z,1.30
2023-03-11T12:19:44.053Z,1.30
2023-03-11T12:22:41.841Z,1.20
2023-03-11T12:25:47.134Z,1.25
2023-03-11T12:28:28.850Z,1.20
2023-03-11T12:31:02.500Z,1.38
2023-03-11T12:33:48.805Z,1.40
2023-03-11T12:36:22.054Z,1.17
2023-03-11T12:38:50.039Z,1.15
2023-03-11T12:41:16.592Z,1.60
2023-03-11T12:43:43.184Z,1.15
2023-03-11T12:46:12.952Z,1.20
2023-03-11T12:49:06.591Z,1.30
2023-03-11T12:51:37.480Z,1.30
2023-03-11T12:54:32.194Z,1.15
2023-03-11T12:57:01.289Z,1.27
2023-03-11T13:00:07.764Z,1.27
2023-03-11T13:03:07.142Z,0.90
2023-03-11T13:05:40.168Z,1.20
2023-03-11T13:08:21.153Z,1.00
2023-03-11T13:10:49.676Z,1.60
2023-03-11T13:13:25.676Z,1.17
2023-03-11T13:15:53.211Z,1.27
2023-03-11T13:18:24.672Z,1.35
2023-03-11T13:20:58.608Z,1.10
2023-03-11T13:23:29.647Z,1.33
2023-03-11T13:26:15.092Z,1.30
2023-03-11T13:28:52.528Z,1.00
2023-03-11T13:32:01.222Z,0.85
2023-03-11T13:34:47.715Z,1.10
2023-03-11T13:37:45.976Z,1.40
2023-03-11T13:43:44.700Z,1.30
2023-03-11T13:46:43.000Z,1.42
2023-03-11T13:49:36.187Z,1.20
2023-03-11T13:52:16.968Z,1.50
2023-03-11T13:55:16.521Z,1.13
2023-03-11T13:57:55.241Z,1.30
2023-03-11T14:00:29.770Z,1.20
2023-03-11T14:03:30.650Z,1.30
2023-03-11T14:06:20.417Z,1.40
2023-03-11T14:08:58.983Z,1.00
2023-03-11T14:11:31.188Z,1.30
2023-03-11T14:16:55.913Z,1.40
2023-03-11T14:19:44.600Z,1.27
2023-03-11T14:22:20.259Z,1.38
2023-03-11T14:24:59.058Z,0.90
2023-03-11T14:27:26.322Z,1.17
2023-03-11T14:29:54.735Z,1.40
2023-03-11T14:32:27.665Z,1.08
2023-03-11T14:34:54.959Z,1.13
2023-03-11T14:37:27.512Z,1.00
2023-03-11T14:39:54.403Z,1.08
2023-03-11T14:42:21.037Z,1.20
2023-03-11T14:44:53.049Z,1.13
2023-03-11T14:47:24.159Z,1.20
2023-03-11T14:49:52.372Z,1.23
2023-03-11T14:52:33.204Z,1.70
2023-03-11T14:55:00.644Z,1.40
2023-03-11T14:57:50.642Z,1.23
2023-03-11T15:00:25.353Z,1.23
2023-03-11T15:02:59.937Z,1.00
2023-03-11T15:05:44.528Z,1.13
2023-03-11T15:08:11.627Z,1.10
2023-03-11T15:13:42.898Z,1.25
2023-03-11T15:16:42.355Z,1.00
2023-03-11T15:19:34.286Z,1.25
2023-03-11T15:22:33.908Z,1.38
2023-03-11T15:25:02.761Z,1.10
2023-03-11T15:27:32.993Z,1.48
2023-03-11T15:30:01.362Z,1.37
2023-03-11T15:32:42.646Z,1.33
2023-03-11T15:35:10.957Z,1.30
2023-03-11T15:37:38.756Z,1.10
2023-03-11T15:40:43.981Z,1.20
2023-03-11T15:43:40.500Z,1.20
2023-03-11T15:46:10.380Z,1.10
2023-03-11T15:48:37.057Z,1.20
2023-03-11T15:51:04.676Z,0.90
2023-03-11T15:53:39.096Z,1.05
2023-03-11T15:56:17.858Z,1.40
2023-03-11T15:58:44.843Z,0.95
2023-03-11T16:01:11.698Z,1.15
2023-03-11T16:03:39.351Z,1.40
2023-03-11T16:06:08.822Z,1.52
2023-03-11T16:08:35.733Z,0.97
2023-03-11T16:11:02.433Z,1.10
2023-03-11T16:13:29.070Z,1.08
2023-03-11T16:15:55.679Z,1.17
2023-03-11T16:18:22.316Z,0.90
2023-03-11T16:20:51.981Z,1.00
2023-03-11T16:23:26.608Z,1.05
2023-03-11T16:26:02.575Z,1.00
2023-03-11T16:28:29.583Z,1.00
2023-03-11T16:31:02.158Z,1.00
2023-03-11T16:33:28.881Z,1.17
2023-03-11T16:35:55.587Z,1.20
2023-03-11T16:38:23.224Z,1.08
2023-03-11T16:41:01.563Z,1.20
2023-03-11T16:43:29.978Z,0.82
2023-03-11T16:45:56.654Z,1.10
2023-03-11T16:48:23.953Z,1.05
2023-03-11T16:50:50.565Z,0.90
2023-03-11T16:53:17.648Z,1.10
2023-03-11T16:55:45.741Z,1.00
2023-03-11T16:58:13.358Z,0.80
2023-03-11T17:00:41.852Z,1.02
2023-03-11T17:03:13.548Z,0.93
2023-03-11T17:05:40.421Z,0.90
2023-03-11T17:08:07.382Z,1.00
2023-03-11T17:10:43.449Z,1.10
2023-03-11T17:13:12.851Z,1.13
2023-03-11T17:15:42.228Z,1.10
2023-03-11T17:18:08.928Z,0.90
2023-03-11T17:20:37.056Z,1.02
2023-03-11T17:23:03.633Z,1.83
2023-03-11T17:25:30.260Z,0.73
2023-03-11T17:27:57.754Z,0.90
2023-03-11T17:30:35.605Z,1.00
2023-03-11T17:33:02.948Z,1.10
2023-03-11T17:35:29.591Z,1.40
2023-03-11T17:37:56.257Z,1.45
2023-03-11T17:40:22.914Z,1.00
2023-03-11T17:42:49.539Z,0.90
2023-03-11T17:45:16.204Z,1.05
2023-03-11T17:47:44.003Z,1.20
2023-03-11T17:50:11.998Z,1.50
2023-03-11T17:52:38.589Z,1.42
2023-03-11T17:55:05.723Z,1.33
2023-03-11T17:57:44.400Z,1.23
2023-03-11T18:00:14.579Z,2.03
2023-03-11T18:02:41.220Z,1.05
2023-03-11T18:05:09.201Z,1.20
2023-03-11T18:07:38.924Z,0.98
2023-03-11T18:10:06.879Z,1.10
2023-03-11T18:12:33.618Z,1.20
2023-03-11T18:15:04.167Z,0.90
2023-03-11T18:17:30.885Z,0.85
2023-03-11T18:19:59.502Z,0.80
2023-03-11T18:22:26.738Z,1.00
2023-03-11T18:24:53.573Z,1.23
2023-03-11T18:27:20.279Z,1.17
2023-03-11T18:29:46.914Z,1.40
2023-03-11T18:32:13.551Z,0.80
2023-03-11T18:34:41.605Z,1.42
2023-03-11T18:37:08.614Z,1.20
2023-03-11T18:39:35.664Z,1.20
2023-03-11T18:42:02.845Z,1.20
2023-03-11T18:44:29.478Z,1.50
2023-03-11T18:46:56.432Z,1.40
2023-03-11T18:49:23.205Z,1.80
2023-03-11T18:51:49.854Z,1.83
2023-03-11T18:54:16.459Z,1.33
2023-03-11T18:56:43.071Z,1.58
2023-03-11T18:59:18.013Z,1.80
2023-03-11T19:01:45.216Z,1.90
2023-03-11T19:04:12.538Z,2.03
2023-03-11T19:06:39.631Z,1.55
2023-03-11T19:09:06.692Z,1.27
2023-03-11T19:11:33.506Z,1.60
2023-03-11T19:14:00.345Z,1.60
2023-03-11T19:16:27.361Z,1.20
2023-03-11T19:19:00.159Z,1.38
2023-03-11T19:21:27.746Z,1.35
2023-03-11T19:24:00.558Z,1.50
2023-03-11T19:26:44.324Z,1.33
2023-03-11T19:29:15.324Z,1.10
2023-03-11T19:31:43.747Z,1.40
2023-03-11T19:34:11.248Z,1.83
2023-03-11T19:36:41.022Z,1.30
2023-03-11T19:39:08.747Z,1.50
2023-03-11T19:41:36.007Z,1.10
2023-03-11T19:44:04.466Z,1.25
2023-03-11T19:46:34.955Z,1.25
2023-03-11T19:49:02.704Z,1.13
2023-03-11T19:51:48.521Z,1.20
2023-03-11T19:54:19.532Z,1.63
2023-03-11T19:56:48.988Z,1.42
2023-03-11T19:59:18.744Z,1.58
2023-03-11T20:01:46.143Z,1.42
2023-03-11T20:04:16.571Z,1.47
2023-03-11T20:06:44.542Z,1.02
2023-03-11T20:09:16.332Z,0.98
2023-03-11T20:11:46.990Z,1.52
2023-03-11T20:14:14.666Z,0.90
2023-03-11T20:16:41.936Z,1.60
2023-03-11T20:19:08.672Z,0.98
2023-03-11T20:21:39.392Z,1.40
2023-03-11T20:24:07.006Z,0.70
2023-03-11T20:26:33.946Z,1.10
2023-03-11T20:29:00.563Z,1.10
2023-03-11T20:31:28.083Z,1.30
2023-03-11T20:33:55.999Z,1.05
2023-03-11T20:36:29.098Z,1.33
2023-03-11T20:38:56.525Z,1.25
2023-03-11T20:41:24.605Z,1.20
2023-03-11T20:43:52.242Z,1.40
2023-03-11T20:46:19.130Z,0.90
2023-03-11T20:48:46.101Z,1.27
2023-03-11T20:51:16.002Z,1.10
2023-03-11T20:53:42.832Z,1.30
2023-03-11T20:56:12.788Z,0.95
2023-03-11T20:58:39.566Z,1.10
2023-03-11T21:01:19.439Z,1.20
2023-03-11T21:03:46.504Z,1.48
2023-03-11T21:06:22.901Z,1.13
2023-03-11T21:08:50.297Z,1.25
2023-03-11T21:11:20.545Z,1.15
2023-03-11T21:13:47.863Z,1.25
2023-03-11T21:16:15.342Z,1.40
2023-03-11T21:18:44.395Z,1.27
2023-03-11T21:21:16.294Z,1.13
2023-03-11T21:23:44.429Z,1.20
2023-03-11T21:26:14.074Z,1.25
2023-03-11T21:28:49.478Z,1.30
2023-03-11T21:31:21.069Z,1.20
2023-03-11T21:33:49.763Z,1.75
2023-03-11T21:36:17.339Z,1.70
2023-03-11T21:38:44.546Z,1.98
2023-03-11T21:41:16.922Z,2.08
2023-03-11T21:43:45.213Z,1.73
2023-03-11T21:46:15.865Z,2.20
2023-03-11T21:48:43.211Z,2.30
2023-03-11T21:51:10.275Z,2.08
2023-03-11T21:53:37.311Z,2.30
2023-03-11T21:56:04.519Z,2.20
2023-03-11T21:58:32.126Z,2.05
2023-03-11T22:00:59.340Z,2.28
2023-03-11T22:03:26.326Z,2.20
2023-03-11T22:06:00.369Z,2.40
2023-03-11T22:08:27.863Z,2.00
2023-03-11T22:10:54.931Z,2.20
2023-03-11T22:13:22.091Z,2.28
2023-03-11T22:15:48.802Z,2.45
2023-03-11T22:18:15.468Z,2.63
2023-03-11T22:20:43.082Z,2.07
2023-03-11T22:23:10.313Z,2.38
2023-03-11T22:25:37.247Z,2.30
2023-03-11T22:28:04.585Z,2.30
2023-03-11T22:30:31.499Z,2.40
2023-03-11T22:32:58.133Z,2.57
2023-03-11T22:35:24.785Z,2.70
2023-03-11T22:37:51.425Z,2.88
2023-03-11T22:40:18.099Z,2.78
2023-03-11T22:42:44.786Z,2.50
2023-03-11T22:45:11.600Z,2.37
2023-03-11T22:47:38.328Z,3.10
2023-03-11T22:50:05.232Z,2.72
2023-03-11T22:52:31.872Z,2.47
2023-03-11T22:54:58.509Z,2.28
2023-03-11T22:57:25.176Z,3.10
2023-03-11T22:59:51.813Z,2.78
2023-03-11T23:02:18.481Z,2.80
2023-03-11T23:04:46.098Z,2.83
2023-03-11T23:07:12.956Z,2.65
2023-03-11T23:09:39.666Z,2.83
2023-03-11T23:12:06.947Z,2.92
2023-03-11T23:14:44.389Z,3.42
2023-03-11T23:17:12.350Z,3.47
2023-03-11T23:19:39.089Z,2.97
2023-03-11T23:22:06.954Z,3.30
2023-03-11T23:24:34.022Z,2.83
2023-03-11T23:27:04.590Z,3.00
2023-03-11T23:29:31.813Z,2.30
2023-03-11T23:31:58.443Z,3.10
2023-03-11T23:34:25.049Z,3.30
2023-03-11T23:36:51.664Z,2.95
2023-03-11T23:39:18.364Z,3.20
2023-03-11T23:41:44.970Z,2.90
2023-03-11T23:44:11.529Z,3.25
2023-03-11T23:46:38.975Z,3.13
2023-03-11T23:49:05.683Z,3.50
2023-03-11T23:51:32.358Z,3.30
2023-03-11T23:53:58.981Z,3.80
2023-03-11T23:56:25.632Z,3.40
2023-03-11T23:58:52.324Z,3.30
